• Join FlightAware (Why Join?)
  • Login
  • US Flag 
05:35PM EST


 

Airport Tracker/Info


-or-


 

Live Flight TrackerFlight Track Log ✈ KAL1335 ✈ 16-Jul-2013 ✈ RKSS / GMP - RKJY / RSU

Flight Track Log - Related Links

Times and Time Zones

All times are in EDT time to prevent confusion due to time zone crossing. See the KAL1335 flight status page for this flight to view local times or setup timezone preferences in your user account.

Time Position Orientation Groundspeed Altitude Reporting Facility
EDT Latitude Longitude Course Direction KTS MPH feet Rate Location/Type
12:30AM 37.4950 126.8670 151° Southeast 203 234 4,400  Level FlightAware
12:30AM 37.4810 126.8740 158° South 223 257 4,700 1,860 Climbing FlightAware
12:31AM 37.4560 126.8840 162° South 237 273 5,700 2,040 Climbing FlightAware
12:31AM 37.4410 126.8900 162° South 236 272 6,100 660 Climbing FlightAware
12:32AM 37.4060 126.9040 162° South 239 275 6,200 180 Climbing FlightAware
12:32AM 37.3780 126.9130 166° South 245 282 6,300 540 Climbing FlightAware
12:32AM 37.3660 126.9160 169° South 250 288 6,600 2,700 Climbing FlightAware
12:33AM 37.3310 126.9240 170° South 245 282 8,300 1,740 Climbing FlightAware
12:33AM 37.3030 126.9310 169° South 245 282 8,300 1,440 Level FlightAware
12:34AM 37.2690 126.9390 169° South 259 298 9,700 2,100 Climbing FlightAware
12:34AM 37.2570 126.9420 169° South 259 298 9,700  Level FlightAware
12:34AM 37.2320 126.9480 169° South 259 298 9,700  Level FlightAware
12:37AM 37.0922 126.9882 167° South  Level Estimated
12:38AM 37.0300 127.0060 167° South  Level Estimated
12:39AM 36.9679 127.0238 167° South  Level Estimated
12:40AM 36.9058 127.0415 167° South  Level Estimated
12:41AM 36.8436 127.0592 167° South  Level Estimated
12:42AM 36.7815 127.0769 167° South  Level Estimated
12:43AM 36.7193 127.0946 167° South  Level Estimated
12:44AM 36.6572 127.1122 167° South  Level Estimated
12:45AM 36.5950 127.1298 167° South  Level Estimated
12:46AM 36.5328 127.1474 167° South  Level Estimated
12:47AM 36.4707 127.1649 167° South  Level Estimated
12:48AM 36.4085 127.1825 167° South  Level Estimated
12:49AM 36.3463 127.2000 167° South  Level Estimated
12:50AM 36.2842 127.2174 167° South  Level Estimated
12:51AM 36.2220 127.2348 167° South  Level Estimated
12:52AM 36.1598 127.2523 167° South  Level Estimated
12:53AM 36.0976 127.2696 167° South  Level Estimated
12:54AM 36.0354 127.2870 167° South  Level Estimated
12:55AM 35.9733 127.3043 167° South  Level Estimated
12:56AM 35.9111 127.3216 167° South  Level Estimated
12:57AM 35.8489 127.3389 167° South  Level Estimated
12:58AM 35.7867 127.3561 167° South  Level Estimated
12:59AM 35.7245 127.3734 167° South  Level Estimated
01:00AM 35.6623 127.3905 167° South  Level Estimated
01:01AM 35.6001 127.4077 167° South  Level Estimated
01:02AM 35.5379 127.4248 167° South  Level Estimated
01:03AM 35.4757 127.4419 167° South  Level Estimated
01:04AM 35.4135 127.4590 167° South  Level Estimated
01:05AM 35.3513 127.4761 167° South  Level Estimated
01:06AM 35.2891 127.4931 167° South  Level Estimated
01:07AM 35.2268 127.5101 167° South  Level Estimated
01:08AM 35.1646 127.5271 167° South  Level Estimated
01:09AM 35.1024 127.5441 167° South  Level Estimated
01:10AM 35.0402 127.5610 167° South  Level Estimated
01:11AM 34.9765 127.5783 167° South  Level Estimated
01:12AM 34.9128 127.5956 167° South  Level Estimated
01:13AM 34.8492 127.6128 167° South  Level Estimated
01:14AM 34.8398 127.6153 167° South  Level Estimated